sensor_id;sensor_type;location;lat;lon;timestamp;P1;durP1;ratioP1;P2;durP2;ratioP2
20749;SDS011;10535;50.664;4.564;2023-02-01T00:01:43;24.70;;;10.17;;
20749;SDS011;10535;50.664;4.564;2023-02-01T00:04:08;24.37;;;10.27;;
20749;SDS011;10535;50.664;4.564;2023-02-01T00:06:34;21.00;;;10.10;;
20749;SDS011;10535;50.664;4.564;2023-02-01T00:09:00;24.77;;;11.50;;
20749;SDS011;10535;50.664;4.564;2023-02-01T00:11:26;24.40;;;10.43;;
20749;SDS011;10535;50.664;4.564;2023-02-01T00:13:51;22.83;;;11.10;;
20749;SDS011;10535;50.664;4.564;2023-02-01T00:16:18;23.07;;;9.00;;
20749;SDS011;10535;50.664;4.564;2023-02-01T00:18:46;26.03;;;10.27;;
20749;SDS011;10535;50.664;4.564;2023-02-01T00:21:14;22.87;;;8.97;;
20749;SDS011;10535;50.664;4.564;2023-02-01T00:23:41;20.57;;;9.70;;
20749;SDS011;10535;50.664;4.564;2023-02-01T00:26:09;25.40;;;9.43;;
20749;SDS011;10535;50.664;4.564;2023-02-01T00:28:45;27.10;;;9.47;;
20749;SDS011;10535;50.664;4.564;2023-02-01T00:31:10;18.50;;;9.53;;
20749;SDS011;10535;50.664;4.564;2023-02-01T00:33:37;24.60;;;9.80;;
20749;SDS011;10535;50.664;4.564;2023-02-01T00:36:03;29.90;;;10.43;;
20749;SDS011;10535;50.664;4.564;2023-02-01T00:38:31;27.07;;;10.03;;
20749;SDS011;10535;50.664;4.564;2023-02-01T00:43:31;17.83;;;8.80;;
20749;SDS011;10535;50.664;4.564;2023-02-01T00:45:57;21.83;;;7.97;;
20749;SDS011;10535;50.664;4.564;2023-02-01T00:48:23;23.43;;;8.90;;
20749;SDS011;10535;50.664;4.564;2023-02-01T00:50:49;22.73;;;8.97;;
20749;SDS011;10535;50.664;4.564;2023-02-01T00:53:14;19.43;;;8.40;;
20749;SDS011;10535;50.664;4.564;2023-02-01T00:55:40;21.93;;;7.50;;
20749;SDS011;10535;50.664;4.564;2023-02-01T00:58:09;20.03;;;8.27;;
20749;SDS011;10535;50.664;4.564;2023-02-01T01:00:34;19.60;;;7.47;;
20749;SDS011;10535;50.664;4.564;2023-02-01T01:03:00;16.67;;;6.30;;
20749;SDS011;10535;50.664;4.564;2023-02-01T01:05:26;20.37;;;6.60;;
20749;SDS011;10535;50.664;4.564;2023-02-01T01:07:52;19.53;;;6.40;;
20749;SDS011;10535;50.664;4.564;2023-02-01T01:10:18;27.70;;;6.73;;
20749;SDS011;10535;50.664;4.564;2023-02-01T01:12:44;10.47;;;5.43;;
20749;SDS011;10535;50.664;4.564;2023-02-01T01:15:10;18.63;;;5.97;;
20749;SDS011;10535;50.664;4.564;2023-02-01T01:17:35;17.97;;;4.90;;
20749;SDS011;10535;50.664;4.564;2023-02-01T01:20:01;15.47;;;5.13;;
20749;SDS011;10535;50.664;4.564;2023-02-01T01:22:28;15.97;;;4.83;;
20749;SDS011;10535;50.664;4.564;2023-02-01T01:24:53;12.73;;;5.23;;
20749;SDS011;10535;50.664;4.564;2023-02-01T01:27:19;18.03;;;4.77;;
20749;SDS011;10535;50.664;4.564;2023-02-01T01:29:48;13.73;;;4.87;;
20749;SDS011;10535;50.664;4.564;2023-02-01T01:32:15;14.03;;;4.93;;
20749;SDS011;10535;50.664;4.564;2023-02-01T01:34:40;15.37;;;3.77;;
20749;SDS011;10535;50.664;4.564;2023-02-01T01:37:06;16.03;;;4.10;;
20749;SDS011;10535;50.664;4.564;2023-02-01T01:39:31;11.17;;;4.20;;
20749;SDS011;10535;50.664;4.564;2023-02-01T01:41:57;11.03;;;4.20;;
20749;SDS011;10535;50.664;4.564;2023-02-01T01:47:19;14.17;;;3.53;;
20749;SDS011;10535;50.664;4.564;2023-02-01T01:52:16;12.87;;;4.87;;
20749;SDS011;10535;50.664;4.564;2023-02-01T01:54:43;11.87;;;4.20;;
20749;SDS011;10535;50.664;4.564;2023-02-01T01:57:14;18.33;;;4.30;;
20749;SDS011;10535;50.664;4.564;2023-02-01T01:59:46;11.70;;;4.23;;
20749;SDS011;10535;50.664;4.564;2023-02-01T02:02:18;12.47;;;2.87;;
20749;SDS011;10535;50.664;4.564;2023-02-01T02:04:43;7.23;;;2.87;;
20749;SDS011;10535;50.664;4.564;2023-02-01T02:07:11;11.27;;;3.57;;
20749;SDS011;10535;50.664;4.564;2023-02-01T02:09:42;10.53;;;3.47;;
20749;SDS011;10535;50.664;4.564;2023-02-01T02:12:08;7.40;;;2.93;;
20749;SDS011;10535;50.664;4.564;2023-02-01T02:14:34;9.63;;;3.47;;
20749;SDS011;10535;50.664;4.564;2023-02-01T02:17:10;15.33;;;3.70;;
20749;SDS011;10535;50.664;4.564;2023-02-01T02:31:26;15.23;;;3.97;;
20749;SDS011;10535;50.664;4.564;2023-02-01T02:36:43;13.90;;;2.80;;
20749;SDS011;10535;50.664;4.564;2023-02-01T02:44:43;10.97;;;3.20;;
20749;SDS011;10535;50.664;4.564;2023-02-01T02:49:59;10.77;;;3.30;;
20749;SDS011;10535;50.664;4.564;2023-02-01T02:52:55;15.03;;;2.90;;
20749;SDS011;10535;50.664;4.564;2023-02-01T02:55:45;10.07;;;3.47;;
20749;SDS011;10535;50.664;4.564;2023-02-01T02:58:11;9.87;;;3.27;;
20749;SDS011;10535;50.664;4.564;2023-02-01T03:00:56;4.37;;;2.43;;
20749;SDS011;10535;50.664;4.564;2023-02-01T03:03:41;12.73;;;2.60;;
20749;SDS011;10535;50.664;4.564;2023-02-01T03:06:26;10.17;;;2.10;;
20749;SDS011;10535;50.664;4.564;2023-02-01T03:08:53;11.60;;;3.30;;
20749;SDS011;10535;50.664;4.564;2023-02-01T03:11:22;11.43;;;3.93;;
20749;SDS011;10535;50.664;4.564;2023-02-01T03:14:09;8.17;;;2.20;;
20749;SDS011;10535;50.664;4.564;2023-02-01T03:16:40;10.17;;;2.50;;
20749;SDS011;10535;50.664;4.564;2023-02-01T03:19:14;11.90;;;2.53;;
20749;SDS011;10535;50.664;4.564;2023-02-01T03:21:55;8.03;;;3.33;;
20749;SDS011;10535;50.664;4.564;2023-02-01T03:24:31;10.33;;;3.37;;
20749;SDS011;10535;50.664;4.564;2023-02-01T03:27:18;10.20;;;2.80;;
20749;SDS011;10535;50.664;4.564;2023-02-01T03:29:45;13.47;;;3.00;;
20749;SDS011;10535;50.664;4.564;2023-02-01T03:32:17;12.20;;;2.07;;
20749;SDS011;10535;50.664;4.564;2023-02-01T03:34:43;14.17;;;2.67;;
20749;SDS011;10535;50.664;4.564;2023-02-01T03:37:10;6.50;;;2.37;;
20749;SDS011;10535;50.664;4.564;2023-02-01T03:42:14;9.10;;;2.70;;
20749;SDS011;10535;50.664;4.564;2023-02-01T03:44:54;16.37;;;3.07;;
20749;SDS011;10535;50.664;4.564;2023-02-01T03:47:38;9.47;;;2.37;;
20749;SDS011;10535;50.664;4.564;2023-02-01T03:50:08;8.13;;;2.67;;
20749;SDS011;10535;50.664;4.564;2023-02-01T03:52:44;7.07;;;2.63;;
20749;SDS011;10535;50.664;4.564;2023-02-01T03:55:22;5.60;;;1.83;;
20749;SDS011;10535;50.664;4.564;2023-02-01T03:57:57;8.23;;;2.73;;
20749;SDS011;10535;50.664;4.564;2023-02-01T04:00:24;6.67;;;2.20;;
20749;SDS011;10535;50.664;4.564;2023-02-01T04:02:51;12.27;;;2.77;;
20749;SDS011;10535;50.664;4.564;2023-02-01T04:05:17;8.70;;;2.43;;
20749;SDS011;10535;50.664;4.564;2023-02-01T04:07:42;8.87;;;2.73;;
20749;SDS011;10535;50.664;4.564;2023-02-01T04:10:08;11.57;;;2.50;;
20749;SDS011;10535;50.664;4.564;2023-02-01T04:12:35;6.07;;;2.87;;
20749;SDS011;10535;50.664;4.564;2023-02-01T04:15:01;9.73;;;2.57;;
20749;SDS011;10535;50.664;4.564;2023-02-01T04:17:26;10.50;;;1.90;;
20749;SDS011;10535;50.664;4.564;2023-02-01T04:19:52;7.10;;;2.03;;
20749;SDS011;10535;50.664;4.564;2023-02-01T04:22:18;4.93;;;1.93;;
20749;SDS011;10535;50.664;4.564;2023-02-01T04:24:43;13.17;;;2.77;;
20749;SDS011;10535;50.664;4.564;2023-02-01T04:27:09;4.63;;;1.90;;
20749;SDS011;10535;50.664;4.564;2023-02-01T04:29:34;11.70;;;2.43;;
20749;SDS011;10535;50.664;4.564;2023-02-01T04:32:00;12.63;;;2.57;;
20749;SDS011;10535;50.664;4.564;2023-02-01T04:34:26;13.93;;;3.30;;
20749;SDS011;10535;50.664;4.564;2023-02-01T04:36:51;8.07;;;2.57;;
20749;SDS011;10535;50.664;4.564;2023-02-01T04:39:17;11.07;;;2.97;;
20749;SDS011;10535;50.664;4.564;2023-02-01T04:41:43;12.07;;;2.30;;
20749;SDS011;10535;50.664;4.564;2023-02-01T04:44:18;8.17;;;2.13;;
20749;SDS011;10535;50.664;4.564;2023-02-01T04:46:44;14.47;;;2.40;;
20749;SDS011;10535;50.664;4.564;2023-02-01T04:49:12;9.77;;;2.47;;
20749;SDS011;10535;50.664;4.564;2023-02-01T04:51:39;9.13;;;2.80;;
20749;SDS011;10535;50.664;4.564;2023-02-01T04:54:05;5.47;;;1.90;;
20749;SDS011;10535;50.664;4.564;2023-02-01T04:56:31;15.60;;;2.73;;
20749;SDS011;10535;50.664;4.564;2023-02-01T04:58:57;15.10;;;2.70;;
20749;SDS011;10535;50.664;4.564;2023-02-01T05:01:22;6.77;;;1.70;;
20749;SDS011;10535;50.664;4.564;2023-02-01T05:03:49;18.70;;;2.77;;
20749;SDS011;10535;50.664;4.564;2023-02-01T05:06:15;15.67;;;2.43;;
20749;SDS011;10535;50.664;4.564;2023-02-01T05:08:41;8.77;;;2.50;;
20749;SDS011;10535;50.664;4.564;2023-02-01T05:11:07;8.63;;;2.07;;
20749;SDS011;10535;50.664;4.564;2023-02-01T05:13:52;8.13;;;2.17;;
20749;SDS011;10535;50.664;4.564;2023-02-01T05:16:18;11.40;;;2.93;;
20749;SDS011;10535;50.664;4.564;2023-02-01T05:18:44;10.03;;;2.87;;
20749;SDS011;10535;50.664;4.564;2023-02-01T05:21:09;4.80;;;2.27;;
20749;SDS011;10535;50.664;4.564;2023-02-01T05:23:35;9.00;;;2.57;;
20749;SDS011;10535;50.664;4.564;2023-02-01T05:26:19;10.33;;;2.63;;
20749;SDS011;10535;50.664;4.564;2023-02-01T05:28:44;10.97;;;3.10;;
20749;SDS011;10535;50.664;4.564;2023-02-01T05:31:10;11.83;;;2.30;;
20749;SDS011;10535;50.664;4.564;2023-02-01T05:33:36;21.40;;;3.63;;
20749;SDS011;10535;50.664;4.564;2023-02-01T05:36:02;9.07;;;1.93;;
20749;SDS011;10535;50.664;4.564;2023-02-01T05:38:28;15.40;;;3.40;;
20749;SDS011;10535;50.664;4.564;2023-02-01T05:40:54;10.20;;;2.50;;
20749;SDS011;10535;50.664;4.564;2023-02-01T05:43:21;9.37;;;2.90;;
20749;SDS011;10535;50.664;4.564;2023-02-01T05:45:46;14.17;;;2.90;;
20749;SDS011;10535;50.664;4.564;2023-02-01T05:48:12;12.77;;;2.93;;
20749;SDS011;10535;50.664;4.564;2023-02-01T05:50:37;5.33;;;2.20;;
20749;SDS011;10535;50.664;4.564;2023-02-01T05:53:03;8.80;;;3.33;;
20749;SDS011;10535;50.664;4.564;2023-02-01T05:55:29;16.03;;;3.57;;
20749;SDS011;10535;50.664;4.564;2023-02-01T05:57:54;13.63;;;2.83;;
20749;SDS011;10535;50.664;4.564;2023-02-01T06:00:20;7.57;;;2.53;;
20749;SDS011;10535;50.664;4.564;2023-02-01T06:02:46;7.50;;;2.30;;
20749;SDS011;10535;50.664;4.564;2023-02-01T06:05:11;9.27;;;1.70;;
20749;SDS011;10535;50.664;4.564;2023-02-01T06:07:37;9.67;;;3.00;;
20749;SDS011;10535;50.664;4.564;2023-02-01T06:10:03;12.37;;;2.73;;
20749;SDS011;10535;50.664;4.564;2023-02-01T06:12:29;8.73;;;2.10;;
20749;SDS011;10535;50.664;4.564;2023-02-01T06:14:55;8.00;;;2.63;;
20749;SDS011;10535;50.664;4.564;2023-02-01T06:17:20;8.00;;;2.40;;
20749;SDS011;10535;50.664;4.564;2023-02-01T06:19:46;10.33;;;2.83;;
20749;SDS011;10535;50.664;4.564;2023-02-01T06:22:13;10.90;;;2.47;;
20749;SDS011;10535;50.664;4.564;2023-02-01T06:24:39;9.80;;;2.57;;
20749;SDS011;10535;50.664;4.564;2023-02-01T06:27:05;7.57;;;1.87;;
20749;SDS011;10535;50.664;4.564;2023-02-01T06:29:31;11.33;;;3.00;;
20749;SDS011;10535;50.664;4.564;2023-02-01T06:31:57;8.73;;;2.70;;
20749;SDS011;10535;50.664;4.564;2023-02-01T06:34:23;13.87;;;2.60;;
20749;SDS011;10535;50.664;4.564;2023-02-01T06:36:49;4.50;;;2.40;;
20749;SDS011;10535;50.664;4.564;2023-02-01T06:39:15;13.60;;;2.60;;
20749;SDS011;10535;50.664;4.564;2023-02-01T06:41:41;18.53;;;2.83;;
20749;SDS011;10535;50.664;4.564;2023-02-01T06:44:10;13.20;;;3.03;;
20749;SDS011;10535;50.664;4.564;2023-02-01T06:46:36;7.13;;;2.63;;
20749;SDS011;10535;50.664;4.564;2023-02-01T06:49:01;8.00;;;2.60;;
20749;SDS011;10535;50.664;4.564;2023-02-01T06:51:27;8.00;;;2.23;;
20749;SDS011;10535;50.664;4.564;2023-02-01T06:53:54;7.80;;;2.40;;
20749;SDS011;10535;50.664;4.564;2023-02-01T06:56:20;7.53;;;2.03;;
20749;SDS011;10535;50.664;4.564;2023-02-01T06:58:46;8.63;;;2.47;;
20749;SDS011;10535;50.664;4.564;2023-02-01T07:01:12;8.53;;;2.57;;
20749;SDS011;10535;50.664;4.564;2023-02-01T07:03:39;9.30;;;2.03;;
20749;SDS011;10535;50.664;4.564;2023-02-01T07:06:05;5.60;;;2.20;;
20749;SDS011;10535;50.664;4.564;2023-02-01T07:08:32;21.57;;;2.40;;
20749;SDS011;10535;50.664;4.564;2023-02-01T07:11:06;8.13;;;2.03;;
20749;SDS011;10535;50.664;4.564;2023-02-01T07:13:34;8.83;;;2.67;;
20749;SDS011;10535;50.664;4.564;2023-02-01T07:16:00;8.63;;;2.73;;
20749;SDS011;10535;50.664;4.564;2023-02-01T07:18:28;6.20;;;2.47;;
20749;SDS011;10535;50.664;4.564;2023-02-01T07:20:55;4.17;;;2.83;;
20749;SDS011;10535;50.664;4.564;2023-02-01T07:23:21;17.00;;;3.43;;
20749;SDS011;10535;50.664;4.564;2023-02-01T07:25:47;16.47;;;3.00;;
20749;SDS011;10535;50.664;4.564;2023-02-01T07:28:13;16.60;;;2.67;;
20749;SDS011;10535;50.664;4.564;2023-02-01T07:30:38;10.83;;;2.53;;
20749;SDS011;10535;50.664;4.564;2023-02-01T07:33:04;16.47;;;3.57;;
20749;SDS011;10535;50.664;4.564;2023-02-01T07:35:31;14.93;;;2.63;;
20749;SDS011;10535;50.664;4.564;2023-02-01T07:37:57;13.60;;;2.67;;
20749;SDS011;10535;50.664;4.564;2023-02-01T07:40:23;13.17;;;2.50;;
20749;SDS011;10535;50.664;4.564;2023-02-01T07:42:55;11.37;;;2.73;;
20749;SDS011;10535;50.664;4.564;2023-02-01T07:45:21;9.93;;;2.03;;
20749;SDS011;10535;50.664;4.564;2023-02-01T07:47:48;17.43;;;2.47;;
20749;SDS011;10535;50.664;4.564;2023-02-01T07:50:14;9.57;;;3.17;;
20749;SDS011;10535;50.664;4.564;2023-02-01T07:52:40;4.77;;;1.83;;
20749;SDS011;10535;50.664;4.564;2023-02-01T07:55:06;9.17;;;2.30;;
20749;SDS011;10535;50.664;4.564;2023-02-01T07:57:32;8.57;;;3.10;;
20749;SDS011;10535;50.664;4.564;2023-02-01T07:59:57;7.63;;;2.50;;
20749;SDS011;10535;50.664;4.564;2023-02-01T08:02:41;13.60;;;2.83;;
20749;SDS011;10535;50.664;4.564;2023-02-01T08:05:07;10.23;;;2.73;;
20749;SDS011;10535;50.664;4.564;2023-02-01T08:07:33;16.20;;;3.73;;
20749;SDS011;10535;50.664;4.564;2023-02-01T08:09:58;19.70;;;3.00;;
20749;SDS011;10535;50.664;4.564;2023-02-01T08:12:25;7.83;;;1.93;;
20749;SDS011;10535;50.664;4.564;2023-02-01T08:14:51;11.00;;;2.97;;
20749;SDS011;10535;50.664;4.564;2023-02-01T08:17:18;12.63;;;2.50;;
20749;SDS011;10535;50.664;4.564;2023-02-01T08:19:44;6.87;;;2.33;;
20749;SDS011;10535;50.664;4.564;2023-02-01T08:22:09;12.63;;;2.07;;
20749;SDS011;10535;50.664;4.564;2023-02-01T08:24:35;12.57;;;3.17;;
20749;SDS011;10535;50.664;4.564;2023-02-01T08:27:02;7.63;;;2.60;;
20749;SDS011;10535;50.664;4.564;2023-02-01T08:29:28;15.23;;;3.10;;
20749;SDS011;10535;50.664;4.564;2023-02-01T08:31:54;11.20;;;3.20;;
20749;SDS011;10535;50.664;4.564;2023-02-01T08:34:19;11.50;;;2.33;;
20749;SDS011;10535;50.664;4.564;2023-02-01T08:36:45;8.83;;;2.30;;
20749;SDS011;10535;50.664;4.564;2023-02-01T08:39:11;11.43;;;3.50;;
20749;SDS011;10535;50.664;4.564;2023-02-01T08:41:37;17.40;;;2.90;;
20749;SDS011;10535;50.664;4.564;2023-02-01T08:44:03;12.43;;;3.07;;
20749;SDS011;10535;50.664;4.564;2023-02-01T08:46:29;10.17;;;2.73;;
20749;SDS011;10535;50.664;4.564;2023-02-01T08:48:54;15.90;;;2.63;;
20749;SDS011;10535;50.664;4.564;2023-02-01T08:51:21;7.53;;;3.17;;
20749;SDS011;10535;50.664;4.564;2023-02-01T08:53:47;6.97;;;2.50;;
20749;SDS011;10535;50.664;4.564;2023-02-01T08:56:14;11.93;;;2.83;;
20749;SDS011;10535;50.664;4.564;2023-02-01T08:58:41;12.50;;;3.27;;
20749;SDS011;10535;50.664;4.564;2023-02-01T09:01:10;13.43;;;2.67;;
20749;SDS011;10535;50.664;4.564;2023-02-01T09:03:38;13.50;;;2.93;;
20749;SDS011;10535;50.664;4.564;2023-02-01T09:06:04;11.97;;;2.90;;
20749;SDS011;10535;50.664;4.564;2023-02-01T09:08:32;11.70;;;2.97;;
20749;SDS011;10535;50.664;4.564;2023-02-01T09:10:59;9.50;;;2.93;;
20749;SDS011;10535;50.664;4.564;2023-02-01T09:13:29;9.93;;;2.10;;
20749;SDS011;10535;50.664;4.564;2023-02-01T09:15:54;12.33;;;3.73;;
20749;SDS011;10535;50.664;4.564;2023-02-01T09:18:20;11.70;;;3.00;;
20749;SDS011;10535;50.664;4.564;2023-02-01T09:20:46;2.70;;;2.00;;
20749;SDS011;10535;50.664;4.564;2023-02-01T09:23:12;10.20;;;2.90;;
20749;SDS011;10535;50.664;4.564;2023-02-01T09:25:37;26.47;;;5.00;;
20749;SDS011;10535;50.664;4.564;2023-02-01T09:28:03;10.57;;;3.23;;
20749;SDS011;10535;50.664;4.564;2023-02-01T09:30:31;16.10;;;2.27;;
20749;SDS011;10535;50.664;4.564;2023-02-01T09:32:57;10.13;;;2.80;;
20749;SDS011;10535;50.664;4.564;2023-02-01T09:35:23;16.17;;;2.60;;
20749;SDS011;10535;50.664;4.564;2023-02-01T09:37:49;9.97;;;3.07;;
20749;SDS011;10535;50.664;4.564;2023-02-01T09:40:15;16.33;;;2.50;;
20749;SDS011;10535;50.664;4.564;2023-02-01T09:42:45;10.00;;;2.70;;
20749;SDS011;10535;50.664;4.564;2023-02-01T09:48:20;9.73;;;2.90;;
20749;SDS011;10535;50.664;4.564;2023-02-01T09:50:54;8.30;;;2.10;;
20749;SDS011;10535;50.664;4.564;2023-02-01T09:53:23;5.00;;;2.20;;
20749;SDS011;10535;50.664;4.564;2023-02-01T09:56:24;13.50;;;2.47;;
20749;SDS011;10535;50.664;4.564;2023-02-01T09:59:01;9.07;;;2.33;;
20749;SDS011;10535;50.664;4.564;2023-02-01T10:01:48;10.17;;;2.50;;
20749;SDS011;10535;50.664;4.564;2023-02-01T10:04:14;10.73;;;3.03;;
20749;SDS011;10535;50.664;4.564;2023-02-01T10:06:51;7.80;;;2.43;;
20749;SDS011;10535;50.664;4.564;2023-02-01T10:15:15;13.97;;;3.70;;
20749;SDS011;10535;50.664;4.564;2023-02-01T10:20:51;6.10;;;2.23;;
20749;SDS011;10535;50.664;4.564;2023-02-01T10:26:22;18.47;;;3.23;;
20749;SDS011;10535;50.664;4.564;2023-02-01T10:28:53;9.90;;;2.30;;
20749;SDS011;10535;50.664;4.564;2023-02-01T10:31:22;18.43;;;2.90;;
20749;SDS011;10535;50.664;4.564;2023-02-01T10:34:01;12.07;;;3.03;;
20749;SDS011;10535;50.664;4.564;2023-02-01T10:36:44;11.37;;;2.60;;
20749;SDS011;10535;50.664;4.564;2023-02-01T10:39:17;8.67;;;3.10;;
20749;SDS011;10535;50.664;4.564;2023-02-01T10:41:44;12.70;;;2.67;;
20749;SDS011;10535;50.664;4.564;2023-02-01T10:44:11;10.57;;;2.27;;
20749;SDS011;10535;50.664;4.564;2023-02-01T10:46:39;5.00;;;2.10;;
20749;SDS011;10535;50.664;4.564;2023-02-01T10:49:05;14.93;;;2.67;;
20749;SDS011;10535;50.664;4.564;2023-02-01T10:51:49;7.73;;;1.93;;
20749;SDS011;10535;50.664;4.564;2023-02-01T10:54:19;5.17;;;1.73;;
20749;SDS011;10535;50.664;4.564;2023-02-01T10:56:47;9.23;;;2.83;;
20749;SDS011;10535;50.664;4.564;2023-02-01T10:59:23;8.60;;;2.60;;
20749;SDS011;10535;50.664;4.564;2023-02-01T11:01:50;4.17;;;2.50;;
20749;SDS011;10535;50.664;4.564;2023-02-01T11:04:27;9.33;;;1.87;;
20749;SDS011;10535;50.664;4.564;2023-02-01T11:07:05;8.17;;;2.27;;
20749;SDS011;10535;50.664;4.564;2023-02-01T11:09:38;16.63;;;2.90;;
20749;SDS011;10535;50.664;4.564;2023-02-01T11:12:06;8.70;;;2.10;;
20749;SDS011;10535;50.664;4.564;2023-02-01T11:14:57;14.80;;;2.23;;
20749;SDS011;10535;50.664;4.564;2023-02-01T11:17:34;10.87;;;2.30;;
20749;SDS011;10535;50.664;4.564;2023-02-01T11:20:06;7.67;;;2.13;;
20749;SDS011;10535;50.664;4.564;2023-02-01T11:22:45;5.77;;;1.70;;
20749;SDS011;10535;50.664;4.564;2023-02-01T11:25:13;8.13;;;2.50;;
20749;SDS011;10535;50.664;4.564;2023-02-01T11:27:41;10.43;;;2.60;;
20749;SDS011;10535;50.664;4.564;2023-02-01T11:30:07;11.87;;;1.83;;
20749;SDS011;10535;50.664;4.564;2023-02-01T11:32:39;10.63;;;2.30;;
20749;SDS011;10535;50.664;4.564;2023-02-01T11:35:05;4.97;;;1.87;;
20749;SDS011;10535;50.664;4.564;2023-02-01T11:37:41;8.60;;;2.47;;
20749;SDS011;10535;50.664;4.564;2023-02-01T11:42:53;6.73;;;1.57;;
20749;SDS011;10535;50.664;4.564;2023-02-01T11:45:24;11.73;;;1.90;;
20749;SDS011;10535;50.664;4.564;2023-02-01T11:47:52;5.30;;;1.93;;
20749;SDS011;10535;50.664;4.564;2023-02-01T11:50:25;8.03;;;2.10;;
20749;SDS011;10535;50.664;4.564;2023-02-01T11:56:12;7.90;;;1.60;;
20749;SDS011;10535;50.664;4.564;2023-02-01T12:07:45;7.07;;;1.73;;
20749;SDS011;10535;50.664;4.564;2023-02-01T12:15:37;5.67;;;1.07;;
20749;SDS011;10535;50.664;4.564;2023-02-01T12:26:45;8.70;;;1.83;;
20749;SDS011;10535;50.664;4.564;2023-02-01T12:38:11;6.00;;;1.80;;
20749;SDS011;10535;50.664;4.564;2023-02-01T12:46:32;7.30;;;1.80;;
20749;SDS011;10535;50.664;4.564;2023-02-01T12:49:05;4.60;;;1.47;;
20749;SDS011;10535;50.664;4.564;2023-02-01T12:51:39;5.37;;;1.80;;
20749;SDS011;10535;50.664;4.564;2023-02-01T12:54:21;7.37;;;1.60;;
20749;SDS011;10535;50.664;4.564;2023-02-01T12:56:55;6.37;;;1.40;;
20749;SDS011;10535;50.664;4.564;2023-02-01T12:59:32;8.13;;;1.50;;
20749;SDS011;10535;50.664;4.564;2023-02-01T13:05:05;5.00;;;1.57;;
20749;SDS011;10535;50.664;4.564;2023-02-01T13:07:53;3.53;;;1.30;;
20749;SDS011;10535;50.664;4.564;2023-02-01T13:10:50;4.83;;;1.10;;
20749;SDS011;10535;50.664;4.564;2023-02-01T13:13:31;4.83;;;1.30;;
20749;SDS011;10535;50.664;4.564;2023-02-01T13:16:12;2.83;;;1.10;;
20749;SDS011;10535;50.664;4.564;2023-02-01T13:18:39;3.97;;;1.00;;
20749;SDS011;10535;50.664;4.564;2023-02-01T13:21:19;5.90;;;1.33;;
20749;SDS011;10535;50.664;4.564;2023-02-01T13:23:50;4.40;;;1.30;;
20749;SDS011;10535;50.664;4.564;2023-02-01T13:26:17;4.47;;;1.20;;
20749;SDS011;10535;50.664;4.564;2023-02-01T13:34:40;3.77;;;1.33;;
20749;SDS011;10535;50.664;4.564;2023-02-01T13:42:49;3.93;;;1.37;;
20749;SDS011;10535;50.664;4.564;2023-02-01T13:45:37;3.87;;;1.33;;
20749;SDS011;10535;50.664;4.564;2023-02-01T13:48:26;4.00;;;1.10;;
20749;SDS011;10535;50.664;4.564;2023-02-01T13:51:03;16.20;;;2.47;;
20749;SDS011;10535;50.664;4.564;2023-02-01T13:53:43;5.33;;;1.20;;
20749;SDS011;10535;50.664;4.564;2023-02-01T13:56:13;4.60;;;1.83;;
20749;SDS011;10535;50.664;4.564;2023-02-01T13:58:42;5.23;;;1.20;;
20749;SDS011;10535;50.664;4.564;2023-02-01T14:03:53;10.23;;;2.30;;
20749;SDS011;10535;50.664;4.564;2023-02-01T14:09:11;4.67;;;1.53;;
20749;SDS011;10535;50.664;4.564;2023-02-01T14:11:57;4.10;;;1.80;;
20749;SDS011;10535;50.664;4.564;2023-02-01T14:14:43;5.60;;;1.47;;
20749;SDS011;10535;50.664;4.564;2023-02-01T14:19:34;5.93;;;1.77;;
20749;SDS011;10535;50.664;4.564;2023-02-01T14:24:55;3.47;;;1.00;;
20749;SDS011;10535;50.664;4.564;2023-02-01T14:27:30;4.67;;;1.60;;
20749;SDS011;10535;50.664;4.564;2023-02-01T14:30:01;5.10;;;1.77;;
20749;SDS011;10535;50.664;4.564;2023-02-01T14:35:08;3.23;;;1.20;;
20749;SDS011;10535;50.664;4.564;2023-02-01T14:37:59;8.30;;;2.43;;
20749;SDS011;10535;50.664;4.564;2023-02-01T14:40:27;6.07;;;1.93;;
20749;SDS011;10535;50.664;4.564;2023-02-01T14:42:54;6.87;;;1.47;;
20749;SDS011;10535;50.664;4.564;2023-02-01T14:50:29;12.20;;;2.17;;
20749;SDS011;10535;50.664;4.564;2023-02-01T14:58:06;4.20;;;1.93;;
20749;SDS011;10535;50.664;4.564;2023-02-01T15:00:47;4.70;;;1.70;;
20749;SDS011;10535;50.664;4.564;2023-02-01T15:03:24;6.70;;;1.60;;
20749;SDS011;10535;50.664;4.564;2023-02-01T15:09:14;7.00;;;1.93;;
20749;SDS011;10535;50.664;4.564;2023-02-01T15:14:41;8.67;;;1.47;;
20749;SDS011;10535;50.664;4.564;2023-02-01T15:17:29;10.87;;;2.27;;
20749;SDS011;10535;50.664;4.564;2023-02-01T15:22:36;7.37;;;2.07;;
20749;SDS011;10535;50.664;4.564;2023-02-01T15:25:02;17.80;;;1.80;;
20749;SDS011;10535;50.664;4.564;2023-02-01T15:27:28;5.80;;;1.73;;
20749;SDS011;10535;50.664;4.564;2023-02-01T15:30:06;8.90;;;2.00;;
20749;SDS011;10535;50.664;4.564;2023-02-01T15:32:33;6.90;;;1.53;;
20749;SDS011;10535;50.664;4.564;2023-02-01T15:35:04;6.80;;;1.80;;
20749;SDS011;10535;50.664;4.564;2023-02-01T15:37:30;3.67;;;1.97;;
20749;SDS011;10535;50.664;4.564;2023-02-01T15:42:35;7.53;;;1.73;;
20749;SDS011;10535;50.664;4.564;2023-02-01T15:45:18;13.47;;;2.80;;
20749;SDS011;10535;50.664;4.564;2023-02-01T15:47:49;8.43;;;1.83;;
20749;SDS011;10535;50.664;4.564;2023-02-01T15:50:17;3.23;;;1.10;;
20749;SDS011;10535;50.664;4.564;2023-02-01T15:52:45;10.33;;;1.67;;
20749;SDS011;10535;50.664;4.564;2023-02-01T15:57:56;7.03;;;2.10;;
20749;SDS011;10535;50.664;4.564;2023-02-01T16:00:23;8.27;;;2.30;;
20749;SDS011;10535;50.664;4.564;2023-02-01T16:05:28;10.27;;;1.60;;
20749;SDS011;10535;50.664;4.564;2023-02-01T16:07:56;9.47;;;2.57;;
20749;SDS011;10535;50.664;4.564;2023-02-01T16:10:29;5.30;;;1.60;;
20749;SDS011;10535;50.664;4.564;2023-02-01T16:12:55;9.27;;;1.70;;
20749;SDS011;10535;50.664;4.564;2023-02-01T16:15:25;8.40;;;2.20;;
20749;SDS011;10535;50.664;4.564;2023-02-01T16:17:51;11.10;;;2.47;;
20749;SDS011;10535;50.664;4.564;2023-02-01T16:20:17;9.80;;;1.83;;
20749;SDS011;10535;50.664;4.564;2023-02-01T16:22:42;12.47;;;2.90;;
20749;SDS011;10535;50.664;4.564;2023-02-01T16:25:08;4.67;;;1.37;;
20749;SDS011;10535;50.664;4.564;2023-02-01T16:27:34;6.67;;;1.80;;
20749;SDS011;10535;50.664;4.564;2023-02-01T16:29:59;6.67;;;2.13;;
20749;SDS011;10535;50.664;4.564;2023-02-01T16:32:25;6.40;;;2.47;;
20749;SDS011;10535;50.664;4.564;2023-02-01T16:34:51;5.47;;;2.53;;
20749;SDS011;10535;50.664;4.564;2023-02-01T16:37:24;5.13;;;1.73;;
20749;SDS011;10535;50.664;4.564;2023-02-01T16:39:52;5.77;;;2.23;;
20749;SDS011;10535;50.664;4.564;2023-02-01T16:42:18;7.73;;;2.40;;
20749;SDS011;10535;50.664;4.564;2023-02-01T16:44:43;8.40;;;2.10;;
20749;SDS011;10535;50.664;4.564;2023-02-01T16:47:21;10.60;;;2.10;;
20749;SDS011;10535;50.664;4.564;2023-02-01T16:49:47;13.00;;;2.60;;
20749;SDS011;10535;50.664;4.564;2023-02-01T16:52:21;10.07;;;2.27;;
20749;SDS011;10535;50.664;4.564;2023-02-01T16:54:49;8.03;;;2.13;;
20749;SDS011;10535;50.664;4.564;2023-02-01T16:57:15;4.23;;;2.17;;
20749;SDS011;10535;50.664;4.564;2023-02-01T16:59:43;10.60;;;2.77;;
20749;SDS011;10535;50.664;4.564;2023-02-01T17:02:10;13.27;;;2.07;;
20749;SDS011;10535;50.664;4.564;2023-02-01T17:04:37;5.13;;;2.23;;
20749;SDS011;10535;50.664;4.564;2023-02-01T17:07:03;6.10;;;1.60;;
20749;SDS011;10535;50.664;4.564;2023-02-01T17:09:34;8.80;;;1.77;;
20749;SDS011;10535;50.664;4.564;2023-02-01T17:12:01;8.67;;;2.00;;
20749;SDS011;10535;50.664;4.564;2023-02-01T17:14:29;10.60;;;2.60;;
20749;SDS011;10535;50.664;4.564;2023-02-01T17:16:56;9.73;;;2.60;;
20749;SDS011;10535;50.664;4.564;2023-02-01T17:19:22;5.10;;;1.77;;
20749;SDS011;10535;50.664;4.564;2023-02-01T17:21:49;8.27;;;2.77;;